Stevenson, Alabama
Current Conditions -  °F | °C
As of 3:15 PM on Sunday 23 Nov 2014 (Local Time) from K4A6 Reporting Station
Light Rain Light Rain  
Wind Chill: 55°   Ceiling: 1400
Heat Index: 55°   Visibility: 7mi
Dew Point: 54°   Wind: 8mph
Humidity: 94%   Direction: 230°SW
Pressure: 29.58"   Gusts: NA
Location:  34.87°N, 85.84°W
Report Text: K4A6 232115Z AUTO 23007KT 7SM -RA BKN014 OVC019 13/12 A2958 RMK AO2
Loading
Personal Weather Stations






























Interactive Weather Map New forecast layout! Learn more

10-Day Weather Forecast

Advertisements
Track Severe Weather on mobile